Time;durP1;ratioP1;P1;durP2;ratioP2;P2;SDS_P1;SDS_P2;PMS_P1;PMS_P2;Temp;Humidity;BMP_temperature;BMP_pressure;BME280_temperature;BME280_humidity;BME280_pressure;Samples;Min_cycle;Max_cycle;Signal;HPM_P1;HPM_P2
2022/09/07 00:01:53;;;;;;;5.22;3.45;;;24.30;64.90;;;;;;5095340;28;20040;-61
2022/09/07 00:04:18;;;;;;;5.15;3.50;;;24.30;64.90;;;;;;5095899;28;20055;-61
2022/09/07 00:06:44;;;;;;;5.03;3.28;;;24.30;64.90;;;;;;5095882;28;20161;-61
2022/09/07 00:09:10;;;;;;;5.38;3.50;;;24.30;64.90;;;;;;5095097;28;20058;-62
2022/09/07 00:11:35;;;;;;;5.47;3.47;;;24.30;64.90;;;;;;5095669;28;20093;-61
2022/09/07 00:14:01;;;;;;;5.50;3.30;;;24.30;64.90;;;;;;5095763;28;20036;-61
2022/09/07 00:16:28;;;;;;;5.57;3.30;;;24.30;64.90;;;;;;5094678;28;20040;-62
2022/09/07 00:18:58;;;;;;;4.83;3.10;;;24.30;64.90;;;;;;5096120;28;20105;-62
2022/09/07 00:21:24;;;;;;;5.63;3.63;;;24.30;64.90;;;;;;5095342;28;20391;-63
2022/09/07 00:23:50;;;;;;;7.20;3.72;;;24.30;64.90;;;;;;5094319;28;20487;-62
2022/09/07 00:26:20;;;;;;;5.63;3.40;;;24.20;64.80;;;;;;5095407;28;20071;-62
2022/09/07 00:28:46;;;;;;;5.18;3.38;;;24.20;64.80;;;;;;5095062;28;20052;-61
2022/09/07 00:31:17;;;;;;;5.85;3.65;;;24.20;64.80;;;;;;5095486;28;20043;-61
2022/09/07 00:33:43;;;;;;;4.47;3.10;;;24.20;64.80;;;;;;5095756;28;20075;-61
2022/09/07 00:36:09;;;;;;;7.50;3.47;;;24.20;64.80;;;;;;5094615;28;20087;-62
2022/09/07 00:38:37;;;;;;;4.43;3.38;;;24.20;64.80;;;;;;5094503;28;20044;-62
2022/09/07 00:41:03;;;;;;;7.63;3.60;;;24.20;64.80;;;;;;5095780;28;20101;-62
2022/09/07 00:43:56;;;;;;;8.40;3.58;;;24.20;64.80;;;;;;5094180;28;20114;-62
2022/09/07 00:46:26;;;;;;;4.82;2.92;;;24.20;64.70;;;;;;5093722;28;20509;-63
2022/09/07 00:49:09;;;;;;;5.43;3.60;;;24.20;64.70;;;;;;5095248;28;20040;-62
2022/09/07 00:51:39;;;;;;;6.50;3.55;;;24.20;64.70;;;;;;5094280;28;20040;-62
2022/09/07 00:54:07;;;;;;;5.72;3.70;;;24.20;64.80;;;;;;5094100;28;20087;-62
2022/09/07 00:56:37;;;;;;;4.60;3.60;;;24.20;64.80;;;;;;5094261;28;20460;-62
2022/09/07 00:59:03;;;;;;;5.57;3.38;;;24.20;64.80;;;;;;5094132;28;20047;-62
2022/09/07 01:01:30;;;;;;;4.70;3.13;;;24.20;64.80;;;;;;5093538;28;20415;-62
2022/09/07 01:03:56;;;;;;;5.18;3.65;;;24.20;64.80;;;;;;5093126;28;20119;-62
2022/09/07 01:06:27;;;;;;;4.03;3.00;;;24.20;64.80;;;;;;5093353;28;20183;-62
2022/09/07 01:08:53;;;;;;;6.95;3.25;;;24.20;64.80;;;;;;5094305;28;20036;-62
2022/09/07 01:11:20;;;;;;;7.28;3.15;;;24.20;64.80;;;;;;5092319;28;20059;-62
2022/09/07 01:13:46;;;;;;;4.93;3.25;;;24.20;64.80;;;;;;5093947;28;20433;-61
2022/09/07 01:16:33;;;;;;;5.28;3.58;;;24.20;64.80;;;;;;5095011;28;20169;-61
2022/09/07 01:19:23;;;;;;;4.80;3.42;;;24.20;64.80;;;;;;5076233;28;20609;-61
2022/09/07 01:22:15;;;;;;;4.00;3.20;;;24.20;64.80;;;;;;5093845;28;20072;-62
2022/09/07 01:25:00;;;;;;;3.90;3.13;;;24.10;64.70;;;;;;5075560;28;20098;-63
2022/09/07 01:27:50;;;;;;;4.82;3.38;;;24.10;64.80;;;;;;5093292;28;20507;-62
2022/09/07 01:30:19;;;;;;;7.72;3.65;;;24.10;64.80;;;;;;5093991;28;20480;-64
2022/09/07 01:33:03;;;;;;;5.30;3.80;;;24.10;64.80;;;;;;5093617;28;20396;-64
2022/09/07 01:35:47;;;;;;;6.10;3.70;;;24.10;64.70;;;;;;5093009;28;20064;-62
2022/09/07 01:38:51;;;;;;;5.38;3.60;;;24.10;64.70;;;;;;5093419;28;20051;-62
2022/09/07 01:41:22;;;;;;;5.80;3.40;;;24.10;64.70;;;;;;5094336;28;20051;-61
2022/09/07 01:44:17;;;;;;;5.03;3.28;;;24.10;64.80;;;;;;5093220;28;20101;-62
2022/09/07 01:47:11;;;;;;;5.20;3.25;;;24.10;64.70;;;;;;5090172;28;20136;-62
2022/09/07 01:49:46;;;;;;;5.18;3.63;;;24.10;64.70;;;;;;5093937;28;20048;-62
2022/09/07 01:52:42;;;;;;;4.93;3.60;;;24.10;64.70;;;;;;5093259;28;20097;-63
2022/09/07 01:55:40;;;;;;;4.65;3.50;;;24.10;64.70;;;;;;5057505;28;20052;-62
2022/09/07 01:58:10;;;;;;;4.97;3.58;;;24.00;64.70;;;;;;5094215;28;20048;-63
2022/09/07 02:00:37;;;;;;;4.82;3.17;;;24.10;64.80;;;;;;5091538;28;20120;-62
2022/09/07 02:03:07;;;;;;;6.05;3.50;;;24.00;64.70;;;;;;5092286;28;20105;-63
2022/09/07 02:05:40;;;;;;;6.20;4.25;;;24.00;64.70;;;;;;5075216;28;20097;-62
2022/09/07 02:08:11;;;;;;;5.95;3.40;;;24.10;64.80;;;;;;5091789;28;20044;-62
2022/09/07 02:10:49;;;;;;;5.70;3.58;;;24.10;64.30;;;;;;5092046;28;20535;-62
2022/09/07 02:13:21;;;;;;;5.20;3.50;;;24.00;64.70;;;;;;5092611;28;20044;-62
2022/09/07 02:15:58;;;;;;;5.35;3.88;;;24.00;64.70;;;;;;5091767;28;20070;-62
2022/09/07 02:18:27;;;;;;;4.80;3.25;;;24.00;64.70;;;;;;5092194;28;20395;-62
2022/09/07 02:20:55;;;;;;;4.20;3.10;;;24.00;64.80;;;;;;5059192;28;20040;-62
2022/09/07 02:23:23;;;;;;;5.37;3.50;;;24.00;64.80;;;;;;5075519;28;20131;-62
2022/09/07 02:25:55;;;;;;;4.85;3.33;;;24.00;64.80;;;;;;5075801;28;20048;-63
2022/09/07 02:28:27;;;;;;;5.22;3.40;;;24.00;64.70;;;;;;5074550;28;20105;-62
2022/09/07 02:30:53;;;;;;;4.07;3.13;;;24.00;64.70;;;;;;5075412;28;20093;-62
2022/09/07 02:33:18;;;;;;;6.32;3.28;;;24.00;64.70;;;;;;5092960;28;20040;-62
2022/09/07 02:35:44;;;;;;;4.38;3.20;;;24.00;64.80;;;;;;5092523;28;20052;-62
2022/09/07 02:38:10;;;;;;;4.85;3.38;;;24.00;64.80;;;;;;5093436;28;20135;-63
2022/09/07 02:40:35;;;;;;;4.97;3.20;;;24.00;64.80;;;;;;5092583;28;20056;-62
2022/09/07 02:43:03;;;;;;;4.53;3.20;;;24.00;64.80;;;;;;5092359;28;20040;-63
2022/09/07 02:45:52;;;;;;;6.35;3.60;;;24.00;64.80;;;;;;5093013;28;20093;-62
2022/09/07 02:48:57;;;;;;;4.47;3.40;;;24.00;64.80;;;;;;5092269;28;20051;-62
2022/09/07 02:51:35;;;;;;;6.05;3.40;;;24.00;64.80;;;;;;5092619;28;20488;-62
2022/09/07 02:54:17;;;;;;;5.70;3.47;;;24.00;64.80;;;;;;5093067;28;20114;-62
2022/09/07 02:57:01;;;;;;;4.93;3.30;;;24.00;64.80;;;;;;5091060;28;20127;-63
2022/09/07 02:59:47;;;;;;;4.75;3.30;;;24.00;64.80;;;;;;5092559;28;20043;-63
2022/09/07 03:02:26;;;;;;;4.15;3.15;;;24.00;65.50;;;;;;5092459;28;20133;-63
2022/09/07 03:04:54;;;;;;;4.68;3.03;;;24.00;65.50;;;;;;5091058;28;20040;-63
2022/09/07 03:07:27;;;;;;;5.07;3.08;;;24.00;64.80;;;;;;5092480;28;20047;-63
2022/09/07 03:09:53;;;;;;;3.83;2.97;;;24.00;64.90;;;;;;5074742;28;20059;-63
2022/09/07 03:12:22;;;;;;;4.93;3.30;;;24.00;64.80;;;;;;5073852;28;20044;-63
2022/09/07 03:14:47;;;;;;;4.75;3.08;;;24.00;64.90;;;;;;5074886;28;20051;-63
2022/09/07 03:17:13;;;;;;;6.05;3.17;;;24.00;64.90;;;;;;5124523;27;20040;-63
2022/09/07 03:19:38;;;;;;;4.10;3.15;;;24.00;64.90;;;;;;5092656;28;20063;-60
2022/09/07 03:22:04;;;;;;;4.68;3.03;;;24.00;65.00;;;;;;5124836;27;20093;-63
2022/09/07 03:24:33;;;;;;;4.90;3.28;;;24.00;64.90;;;;;;5091435;28;20093;-63
2022/09/07 03:26:59;;;;;;;5.25;3.35;;;24.00;65.00;;;;;;5092879;28;20048;-60
2022/09/07 03:29:25;;;;;;;4.47;3.22;;;24.00;64.90;;;;;;5092116;28;20048;-63
2022/09/07 03:31:50;;;;;;;5.15;2.92;;;24.00;65.00;;;;;;5091685;28;20054;-63
2022/09/07 03:34:16;;;;;;;4.88;3.33;;;24.00;65.00;;;;;;5092202;28;20044;-62
2022/09/07 03:36:41;;;;;;;5.75;2.97;;;24.00;65.00;;;;;;5092051;28;20052;-62
2022/09/07 03:39:08;;;;;;;5.18;3.10;;;24.00;65.00;;;;;;5091699;28;20096;-62
2022/09/07 03:41:34;;;;;;;4.78;3.10;;;24.00;65.00;;;;;;5092293;28;20044;-62
2022/09/07 03:44:06;;;;;;;3.95;3.00;;;24.00;65.00;;;;;;5092539;28;20052;-62
2022/09/07 03:46:31;;;;;;;5.25;3.05;;;23.90;64.90;;;;;;5090891;28;20510;-62
2022/09/07 03:48:57;;;;;;;4.38;2.78;;;23.90;64.90;;;;;;5092136;28;20040;-62
2022/09/07 03:51:22;;;;;;;4.72;3.25;;;24.00;65.00;;;;;;5091809;28;20123;-62
2022/09/07 03:53:51;;;;;;;3.88;2.80;;;24.00;65.00;;;;;;5091352;28;20047;-62
2022/09/07 03:56:20;;;;;;;4.15;2.85;;;23.90;64.90;;;;;;5091966;28;20054;-62
2022/09/07 03:58:47;;;;;;;4.45;3.30;;;23.90;64.90;;;;;;5091847;28;20119;-62
2022/09/07 04:01:15;;;;;;;4.53;3.25;;;23.90;64.90;;;;;;5090837;28;20127;-62
2022/09/07 04:03:41;;;;;;;4.05;2.83;;;23.90;64.90;;;;;;5090210;28;20079;-62
2022/09/07 04:06:07;;;;;;;3.92;3.00;;;23.90;65.00;;;;;;5091814;28;20071;-62
2022/09/07 04:08:36;;;;;;;3.88;2.92;;;23.90;64.90;;;;;;5090940;28;20110;-63
2022/09/07 04:11:03;;;;;;;4.63;3.20;;;23.90;64.90;;;;;;5092101;28;20051;-62
2022/09/07 04:13:35;;;;;;;4.22;3.03;;;23.90;64.90;;;;;;5091209;28;20036;-62
2022/09/07 04:16:11;;;;;;;4.13;2.95;;;23.90;65.00;;;;;;5074202;28;20074;-62
2022/09/07 04:18:37;;;;;;;5.43;2.78;;;23.90;65.00;;;;;;5091339;28;20536;-63
2022/09/07 04:21:03;;;;;;;4.45;2.80;;;23.90;65.00;;;;;;5091429;28;20052;-62
2022/09/07 04:23:28;;;;;;;4.05;2.65;;;23.90;65.00;;;;;;5091767;28;20028;-62
2022/09/07 04:25:54;;;;;;;4.50;3.00;;;23.90;65.00;;;;;;5090744;28;20491;-62
2022/09/07 04:28:19;;;;;;;4.82;3.55;;;23.90;65.00;;;;;;5090850;28;20048;-62
2022/09/07 04:30:45;;;;;;;5.15;3.03;;;23.90;65.00;;;;;;5090237;28;20044;-62
2022/09/07 04:33:11;;;;;;;5.55;3.35;;;23.90;65.00;;;;;;5094301;28;20475;-62
2022/09/07 04:35:40;;;;;;;4.30;2.92;;;23.90;65.00;;;;;;5093143;28;20143;-62
2022/09/07 04:38:06;;;;;;;5.47;3.17;;;23.90;65.00;;;;;;5095831;28;20044;-63
2022/09/07 04:40:35;;;;;;;4.45;3.20;;;23.90;65.00;;;;;;5095242;28;20593;-63
2022/09/07 04:43:00;;;;;;;4.57;3.20;;;23.90;65.00;;;;;;5095052;28;20036;-62
2022/09/07 04:45:26;;;;;;;4.47;3.25;;;23.90;65.10;;;;;;5094926;28;20152;-62
2022/09/07 04:47:51;;;;;;;4.05;2.97;;;23.90;65.00;;;;;;5095466;28;20036;-62
2022/09/07 04:50:17;;;;;;;3.95;2.70;;;23.80;65.00;;;;;;5094402;28;20044;-62
2022/09/07 04:52:43;;;;;;;3.88;2.72;;;23.80;65.00;;;;;;5095353;28;20043;-62
2022/09/07 04:55:09;;;;;;;5.25;2.92;;;23.80;65.00;;;;;;5094449;28;20131;-62
2022/09/07 04:57:34;;;;;;;4.93;3.20;;;23.80;65.00;;;;;;5094193;28;20509;-62
2022/09/07 05:00:00;;;;;;;5.40;3.33;;;23.80;65.00;;;;;;5095332;28;20047;-63
2022/09/07 05:02:26;;;;;;;4.30;2.63;;;23.80;65.00;;;;;;5093635;28;20046;-63
2022/09/07 05:04:51;;;;;;;4.25;2.88;;;23.80;65.00;;;;;;5094695;28;20074;-62
2022/09/07 05:07:17;;;;;;;3.30;2.67;;;23.80;65.00;;;;;;5094978;28;20078;-62
2022/09/07 05:09:42;;;;;;;4.22;2.90;;;23.80;65.10;;;;;;5094254;28;20109;-64
2022/09/07 05:12:08;;;;;;;4.03;3.08;;;23.80;65.10;;;;;;5095075;28;20101;-63
2022/09/07 05:14:33;;;;;;;4.10;2.80;;;23.80;65.10;;;;;;5094692;28;20220;-63
2022/09/07 05:16:59;;;;;;;4.75;2.95;;;23.80;65.00;;;;;;5094066;28;20614;-62
2022/09/07 05:19:26;;;;;;;3.88;3.20;;;23.80;65.10;;;;;;5094779;28;20032;-61
2022/09/07 05:21:52;;;;;;;5.00;3.38;;;23.80;65.10;;;;;;5094637;28;20472;-61
2022/09/07 05:24:17;;;;;;;4.25;2.97;;;23.80;65.10;;;;;;5093495;28;20090;-62
2022/09/07 05:26:43;;;;;;;4.00;3.10;;;23.80;65.10;;;;;;5093432;28;20127;-62
2022/09/07 05:29:11;;;;;;;5.65;3.28;;;23.80;65.10;;;;;;5094222;28;20033;-62
2022/09/07 05:31:37;;;;;;;4.80;3.40;;;23.80;65.10;;;;;;5093543;28;20040;-62
2022/09/07 05:34:02;;;;;;;6.10;3.45;;;23.80;65.10;;;;;;5094559;28;20108;-62
2022/09/07 05:36:28;;;;;;;4.80;3.35;;;23.80;65.10;;;;;;5093770;28;20048;-62
2022/09/07 05:38:54;;;;;;;3.88;2.97;;;23.80;65.10;;;;;;5093458;28;20048;-62
2022/09/07 05:41:21;;;;;;;3.90;2.72;;;23.80;65.20;;;;;;5094070;28;20077;-62
2022/09/07 05:43:47;;;;;;;4.10;3.20;;;23.80;65.10;;;;;;5094002;28;20043;-63
2022/09/07 05:46:14;;;;;;;3.92;3.08;;;23.80;65.10;;;;;;5093315;28;20052;-63
2022/09/07 05:48:39;;;;;;;5.28;2.88;;;23.80;65.20;;;;;;5094083;28;20127;-63
2022/09/07 05:51:05;;;;;;;3.63;2.65;;;23.80;65.10;;;;;;5093386;28;20166;-61
2022/09/07 05:53:33;;;;;;;6.45;4.78;;;23.80;65.20;;;;;;5093124;28;20126;-61
2022/09/07 05:55:59;;;;;;;;;;;23.80;65.20;;;;;;5094247;28;20466;-61
2022/09/07 05:58:25;;;;;;;9.15;6.05;;;23.70;65.10;;;;;;5093641;28;19928;-60
2022/09/07 06:00:51;;;;;;;9.02;6.50;;;23.70;65.20;;;;;;5093112;28;20048;-61
2022/09/07 06:03:16;;;;;;;8.07;6.15;;;23.70;65.30;;;;;;5092426;28;20384;-61
2022/09/07 06:05:45;;;;;;;8.45;5.97;;;23.70;65.40;;;;;;5093960;28;20085;-61
2022/09/07 06:08:10;;;;;;;7.68;6.13;;;23.70;65.50;;;;;;5093311;28;20051;-61
2022/09/07 06:10:36;;;;;;;7.30;6.05;;;23.70;65.60;;;;;;5091545;28;20127;-61
2022/09/07 06:13:02;;;;;;;10.80;6.97;;;23.70;65.70;;;;;;5092774;28;20037;-61
2022/09/07 06:15:28;;;;;;;10.10;7.22;;;23.70;65.80;;;;;;5093194;28;20051;-61
2022/09/07 06:17:53;;;;;;;8.43;6.97;;;23.70;65.80;;;;;;5092375;28;20044;-61
2022/09/07 06:20:19;;;;;;;9.43;6.65;;;23.70;65.90;;;;;;5092643;28;20079;-60
2022/09/07 06:22:44;;;;;;;11.50;7.55;;;23.70;66.10;;;;;;5093548;28;20076;-61
2022/09/07 06:25:10;;;;;;;9.65;7.70;;;23.70;66.20;;;;;;5093263;28;20078;-61
2022/09/07 06:27:35;;;;;;;10.68;8.23;;;23.70;66.20;;;;;;5092543;28;20131;-61
2022/09/07 06:30:01;;;;;;;12.82;9.38;;;23.70;66.20;;;;;;5092952;28;20055;-61
2022/09/07 06:32:27;;;;;;;11.02;8.88;;;23.70;66.30;;;;;;5093206;28;20040;-60
2022/09/07 06:34:55;;;;;;;13.05;9.30;;;23.70;66.40;;;;;;5091561;28;20076;-60
2022/09/07 06:37:21;;;;;;;11.30;8.88;;;23.60;66.40;;;;;;5092576;28;20381;-60
2022/09/07 06:39:49;;;;;;;11.40;10.00;;;23.60;66.50;;;;;;5093258;28;20047;-60
2022/09/07 06:42:24;;;;;;;11.32;9.13;;;23.60;66.50;;;;;;5090740;28;20040;-60
2022/09/07 06:44:59;;;;;;;11.63;9.60;;;23.60;66.50;;;;;;5092986;28;20051;-60
2022/09/07 06:47:24;;;;;;;14.70;8.82;;;23.60;66.50;;;;;;5092991;28;20096;-60
2022/09/07 06:49:50;;;;;;;13.93;8.93;;;23.60;66.50;;;;;;5092217;28;20516;-60
2022/09/07 06:52:15;;;;;;;12.70;8.60;;;23.60;66.60;;;;;;5092731;28;20051;-60
2022/09/07 06:54:41;;;;;;;12.60;8.70;;;23.60;66.60;;;;;;5092712;28;20043;-60
2022/09/07 06:57:07;;;;;;;9.73;8.07;;;23.60;66.70;;;;;;5091375;28;20051;-60
2022/09/07 06:59:38;;;;;;;11.75;8.10;;;23.60;66.80;;;;;;5092489;28;20036;-61
2022/09/07 07:02:04;;;;;;;10.00;7.55;;;23.60;66.80;;;;;;5092519;28;20039;-61
2022/09/07 07:04:30;;;;;;;11.45;7.65;;;23.60;66.90;;;;;;5092304;28;20047;-61
2022/09/07 07:06:55;;;;;;;9.27;6.65;;;23.50;66.80;;;;;;5092844;28;20047;-60
2022/09/07 07:09:21;;;;;;;10.43;7.35;;;23.50;66.90;;;;;;5091631;28;20048;-62
2022/09/07 07:12:07;;;;;;;8.88;6.40;;;23.50;66.90;;;;;;5092204;28;20051;-61
2022/09/07 07:14:34;;;;;;;10.95;6.95;;;23.50;67.00;;;;;;5091756;28;20055;-61
2022/09/07 07:16:59;;;;;;;9.82;6.90;;;23.50;67.00;;;;;;5091815;28;20130;-63
2022/09/07 07:19:25;;;;;;;11.20;6.95;;;23.50;67.10;;;;;;5090945;28;20075;-60
2022/09/07 07:21:50;;;;;;;9.88;6.88;;;23.50;67.10;;;;;;5092457;28;20043;-60
2022/09/07 07:24:16;;;;;;;14.00;7.55;;;23.50;67.20;;;;;;5090889;28;20044;-60
2022/09/07 07:26:47;;;;;;;7.85;5.80;;;23.50;67.10;;;;;;5090026;28;20040;-60
2022/09/07 07:29:12;;;;;;;11.10;6.63;;;23.50;67.20;;;;;;5090559;28;20055;-63
2022/09/07 07:31:38;;;;;;;10.25;6.35;;;23.50;67.30;;;;;;5090818;28;20043;-60
2022/09/07 07:37:07;;;;;;;10.82;6.70;;;23.40;67.30;;;;;;5091692;28;20048;-61
2022/09/07 07:39:32;;;;;;;10.23;6.03;;;23.40;67.40;;;;;;5090367;28;20093;-61
2022/09/07 07:41:58;;;;;;;8.85;6.07;;;23.40;67.50;;;;;;5091267;28;20044;-62
2022/09/07 07:44:24;;;;;;;9.68;5.53;;;23.40;67.50;;;;;;5090932;28;20085;-61
2022/09/07 07:46:49;;;;;;;7.40;5.30;;;23.40;67.50;;;;;;5091994;28;20078;-62
2022/09/07 07:49:15;;;;;;;8.50;5.32;;;23.50;67.60;;;;;;5091704;28;20040;-61
2022/09/07 07:51:41;;;;;;;7.13;4.60;;;23.40;67.50;;;;;;5091513;28;20500;-61
2022/09/07 07:54:09;;;;;;;8.05;4.90;;;23.50;67.50;;;;;;5091982;28;20105;-61
2022/09/07 07:56:35;;;;;;;9.75;4.57;;;23.50;67.50;;;;;;5091907;28;20044;-61
2022/09/07 07:59:00;;;;;;;7.70;4.75;;;23.50;67.50;;;;;;5091428;28;20040;-61
2022/09/07 08:01:26;;;;;;;5.90;4.28;;;23.50;67.50;;;;;;5091710;28;20403;-61
2022/09/07 08:03:51;;;;;;;5.90;4.20;;;23.50;67.40;;;;;;5092217;28;20438;-61
2022/09/07 08:06:18;;;;;;;5.70;4.00;;;23.50;67.40;;;;;;5091085;28;20040;-61
2022/09/07 08:08:44;;;;;;;6.60;4.18;;;23.60;67.40;;;;;;5095536;28;20113;-61
2022/09/07 08:11:12;;;;;;;7.30;4.13;;;23.50;67.40;;;;;;5095743;28;20105;-61
2022/09/07 08:13:39;;;;;;;7.47;4.22;;;23.60;67.40;;;;;;5094638;28;20039;-60
2022/09/07 08:16:05;;;;;;;6.88;4.05;;;23.60;68.10;;;;;;5095414;28;20055;-61
2022/09/07 08:18:32;;;;;;;8.63;4.38;;;23.60;67.30;;;;;;5094560;28;20044;-61
2022/09/07 08:21:01;;;;;;;8.88;4.32;;;23.60;67.90;;;;;;5095077;28;20040;-61
2022/09/07 08:23:27;;;;;;;7.18;4.95;;;23.60;67.30;;;;;;5095546;28;20070;-61
2022/09/07 08:25:53;;;;;;;9.85;4.55;;;23.60;67.30;;;;;;5095923;28;20040;-61
2022/09/07 08:28:20;;;;;;;5.15;3.95;;;23.60;67.30;;;;;;5093483;28;20123;-61
2022/09/07 08:30:45;;;;;;;7.30;4.00;;;23.60;67.30;;;;;;5095294;28;20043;-61
2022/09/07 08:33:11;;;;;;;8.85;4.30;;;23.60;67.20;;;;;;5095959;28;20118;-62
2022/09/07 08:35:36;;;;;;;5.78;4.22;;;23.60;67.20;;;;;;5094450;28;20056;-62
2022/09/07 08:38:05;;;;;;;8.07;4.00;;;23.60;67.20;;;;;;5095505;28;20040;-62
2022/09/07 08:40:31;;;;;;;8.27;4.18;;;23.60;67.20;;;;;;5095059;28;20048;-62
2022/09/07 08:43:05;;;;;;;6.47;3.78;;;23.60;67.20;;;;;;5093625;28;20044;-63
2022/09/07 08:45:49;;;;;;;6.25;4.03;;;23.60;67.10;;;;;;5093911;28;20048;-62
2022/09/07 08:48:17;;;;;;;6.50;3.90;;;23.60;67.00;;;;;;5093031;28;20091;-62
2022/09/07 08:50:55;;;;;;;6.70;3.80;;;23.60;67.00;;;;;;5094127;28;20051;-62
2022/09/07 08:53:20;;;;;;;4.57;3.75;;;23.60;67.10;;;;;;5093865;28;20054;-62
2022/09/07 08:55:51;;;;;;;6.13;4.07;;;23.60;67.00;;;;;;5093000;28;20127;-62
2022/09/07 08:58:19;;;;;;;6.30;4.00;;;23.60;67.10;;;;;;5093567;28;20047;-62
2022/09/07 09:00:47;;;;;;;6.00;4.03;;;23.60;67.10;;;;;;5094847;28;20625;-62
2022/09/07 09:03:26;;;;;;;;;;;23.60;67.10;;;;;;5094511;28;20048;-62
2022/09/07 09:06:06;;;;;;;5.65;3.60;;;23.60;66.90;;;;;;5093854;28;19920;-62
2022/09/07 09:08:36;;;;;;;5.55;4.18;;;23.60;67.00;;;;;;5093537;28;20044;-62
2022/09/07 09:11:06;;;;;;;8.40;4.03;;;23.60;67.00;;;;;;5093055;28;20040;-62
2022/09/07 09:13:39;;;;;;;5.32;3.95;;;23.70;67.00;;;;;;5094522;28;20399;-62
2022/09/07 09:16:16;;;;;;;6.82;4.18;;;23.70;67.00;;;;;;5094208;28;20130;-62
2022/09/07 09:19:12;;;;;;;5.32;3.90;;;23.70;67.10;;;;;;5093902;28;20048;-62
2022/09/07 09:21:38;;;;;;;5.03;3.95;;;23.70;67.10;;;;;;5093477;28;20507;-62
2022/09/07 09:24:15;;;;;;;5.82;3.92;;;23.70;67.10;;;;;;5092353;28;20137;-62
2022/09/07 09:26:41;;;;;;;5.70;3.42;;;23.70;67.10;;;;;;5110397;28;20059;-62
2022/09/07 09:29:14;;;;;;;6.60;3.90;;;23.70;67.10;;;;;;5093356;28;20047;-63
2022/09/07 09:31:39;;;;;;;5.38;3.83;;;23.70;67.20;;;;;;5092439;28;20071;-62
2022/09/07 09:34:06;;;;;;;4.95;3.42;;;23.70;67.20;;;;;;5094708;28;20416;-62
2022/09/07 09:36:52;;;;;;;5.93;3.90;;;23.70;67.30;;;;;;5093817;28;20056;-62
2022/09/07 09:39:24;;;;;;;6.63;4.18;;;23.70;67.30;;;;;;5093730;28;20567;-62
2022/09/07 09:41:50;;;;;;;6.65;3.97;;;23.70;67.30;;;;;;5092918;28;20139;-62
2022/09/07 09:44:15;;;;;;;4.50;3.80;;;23.70;67.20;;;;;;5093393;28;20134;-62
2022/09/07 09:46:41;;;;;;;5.20;3.78;;;23.70;67.20;;;;;;5075949;28;20510;-62
2022/09/07 09:49:16;;;;;;;8.80;4.13;;;23.70;67.20;;;;;;5109684;28;20052;-62
2022/09/07 09:51:44;;;;;;;4.18;3.25;;;23.70;67.20;;;;;;5109492;28;20052;-62
2022/09/07 09:54:26;;;;;;;4.93;3.65;;;23.70;67.30;;;;;;5075903;28;20044;-62
2022/09/07 09:56:52;;;;;;;6.18;3.90;;;23.70;67.20;;;;;;5092999;28;20048;-62
2022/09/07 09:59:17;;;;;;;5.07;3.50;;;23.70;67.20;;;;;;5091646;28;20036;-62
2022/09/07 10:01:44;;;;;;;5.70;4.03;;;23.70;67.30;;;;;;5093915;28;20040;-62
2022/09/07 10:04:22;;;;;;;8.32;4.15;;;23.70;67.40;;;;;;5094182;28;20044;-62
2022/09/07 10:06:56;;;;;;;5.50;3.72;;;23.70;67.60;;;;;;5091936;28;20130;-62
2022/09/07 10:09:25;;;;;;;5.40;3.95;;;23.70;67.60;;;;;;5092105;28;20040;-62
2022/09/07 10:11:56;;;;;;;4.60;3.70;;;23.70;67.50;;;;;;5092373;28;20594;-62
2022/09/07 10:14:27;;;;;;;4.53;3.45;;;23.70;67.40;;;;;;5091854;28;20059;-62
2022/09/07 10:16:56;;;;;;;5.72;3.63;;;23.70;67.40;;;;;;5092215;28;20051;-62
2022/09/07 10:19:34;;;;;;;5.75;3.55;;;23.70;67.40;;;;;;5092506;28;20040;-62
2022/09/07 10:22:19;;;;;;;7.03;3.80;;;23.70;67.40;;;;;;5093331;28;20044;-62
2022/09/07 10:24:44;;;;;;;5.22;4.03;;;23.70;67.40;;;;;;5092015;28;20086;-61
2022/09/07 10:27:34;;;;;;;9.98;6.70;;;23.70;67.20;;;;;;5091694;28;20079;-61
2022/09/07 10:30:01;;;;;;;11.57;7.63;;;23.70;66.80;;;;;;5093427;28;20071;-60
2022/09/07 10:32:57;;;;;;;12.02;9.82;;;23.70;66.90;;;;;;5091605;28;20058;-60
2022/09/07 10:35:27;;;;;;;13.75;8.77;;;23.70;67.10;;;;;;5091419;28;20379;-60
2022/09/07 10:37:57;;;;;;;13.73;9.82;;;23.70;67.10;;;;;;5090812;28;20036;-60
2022/09/07 10:40:24;;;;;;;15.82;9.68;;;23.70;67.20;;;;;;5090442;28;20460;-61
2022/09/07 10:43:03;;;;;;;13.48;9.30;;;23.60;67.20;;;;;;5091957;28;20039;-60
2022/09/07 10:45:53;;;;;;;11.43;8.73;;;23.60;67.20;;;;;;5090172;28;20055;-60
2022/09/07 10:48:41;;;;;;;11.80;8.18;;;23.60;67.20;;;;;;5075349;28;20051;-60
2022/09/07 10:51:16;;;;;;;11.90;7.93;;;23.60;67.20;;;;;;5093168;28;20106;-60
2022/09/07 10:53:57;;;;;;;11.73;7.47;;;23.60;67.20;;;;;;5093114;28;20153;-60
2022/09/07 10:56:31;;;;;;;13.80;7.70;;;23.60;67.10;;;;;;5091645;28;20553;-60
2022/09/07 10:59:22;;;;;;;10.30;6.85;;;23.60;67.20;;;;;;5075500;28;20429;-60
2022/09/07 11:02:26;;;;;;;10.50;7.53;;;23.60;67.10;;;;;;5075886;28;20494;-60
2022/09/07 11:05:08;;;;;;;11.73;7.50;;;23.60;66.90;;;;;;5089102;28;20131;-60
2022/09/07 11:07:56;;;;;;;12.25;6.68;;;23.60;66.80;;;;;;5090587;28;20054;-59
2022/09/07 11:10:28;;;;;;;8.48;5.80;;;23.60;66.90;;;;;;5088411;28;20403;-60
2022/09/07 11:12:56;;;;;;;9.32;5.38;;;23.60;66.80;;;;;;5092828;28;20055;-60
2022/09/07 11:15:26;;;;;;;10.27;5.78;;;23.60;66.90;;;;;;5090286;28;20047;-61
2022/09/07 11:18:25;;;;;;;7.70;5.63;;;23.60;67.00;;;;;;5074129;28;20040;-61
2022/09/07 11:20:55;;;;;;;8.30;5.50;;;23.70;66.90;;;;;;5084378;28;20075;-60
2022/09/07 11:23:26;;;;;;;8.25;4.63;;;23.70;66.90;;;;;;5090238;28;20044;-60
2022/09/07 11:26:06;;;;;;;9.00;5.88;;;23.70;66.70;;;;;;5092119;28;20513;-61
2022/09/07 11:28:52;;;;;;;13.13;6.60;;;23.60;66.50;;;;;;5090585;28;20048;-59
2022/09/07 11:31:40;;;;;;;10.90;6.40;;;23.70;66.40;;;;;;5089835;28;20071;-60
2022/09/07 11:34:20;;;;;;;;;;;23.70;66.40;;;;;;5091392;28;20448;-60
2022/09/07 11:36:50;;;;;;;7.53;5.18;;;23.60;66.20;;;;;;5091208;28;19952;-63
2022/09/07 11:39:44;;;;;;;7.95;5.25;;;23.70;66.50;;;;;;5074187;28;20050;-62
2022/09/07 11:42:36;;;;;;;8.00;5.10;;;23.70;66.40;;;;;;5067340;28;20108;-63
2022/09/07 11:45:11;;;;;;;9.77;6.03;;;23.70;66.40;;;;;;5091359;28;20052;-63
2022/09/07 11:47:58;;;;;;;8.38;5.63;;;23.70;66.20;;;;;;5091962;28;20086;-63
2022/09/07 11:50:23;;;;;;;9.05;5.88;;;23.70;66.10;;;;;;5076490;28;20040;-62
2022/09/07 11:52:55;;;;;;;8.73;5.30;;;23.70;66.20;;;;;;5089629;28;20132;-62
2022/09/07 11:55:26;;;;;;;8.45;5.38;;;23.70;66.30;;;;;;5090782;28;20060;-63
2022/09/07 11:58:37;;;;;;;7.10;4.75;;;23.70;66.90;;;;;;5073693;28;20127;-62
2022/09/07 12:01:43;;;;;;;7.97;5.10;;;23.70;66.10;;;;;;5092037;28;20040;-63
2022/09/07 12:04:29;;;;;;;8.57;4.60;;;23.70;66.10;;;;;;5010094;28;20041;-62
2022/09/07 12:07:27;;;;;;;9.85;5.00;;;23.70;66.10;;;;;;5083220;28;20053;-63
2022/09/07 12:10:25;;;;;;;8.70;4.93;;;23.80;66.20;;;;;;5091021;28;20051;-64
2022/09/07 12:13:03;;;;;;;6.47;4.03;;;23.80;66.30;;;;;;5091355;28;20101;-62
2022/09/07 12:15:57;;;;;;;7.15;4.55;;;23.90;66.50;;;;;;5074150;28;20044;-63
2022/09/07 12:18:44;;;;;;;7.55;4.32;;;23.90;66.50;;;;;;5073964;28;20052;-63
2022/09/07 12:21:31;;;;;;;8.98;4.18;;;23.90;66.50;;;;;;5092264;28;20056;-63
2022/09/07 12:24:09;;;;;;;8.52;4.32;;;24.00;66.50;;;;;;5091906;28;20044;-63
2022/09/07 12:26:34;;;;;;;6.18;4.43;;;24.00;66.40;;;;;;5089744;28;20051;-63
2022/09/07 12:29:00;;;;;;;6.80;4.45;;;24.00;66.30;;;;;;5090441;28;20052;-63
2022/09/07 12:31:45;;;;;;;7.82;4.55;;;24.00;66.10;;;;;;5091017;28;20051;-62
2022/09/07 12:34:50;;;;;;;7.97;4.90;;;24.00;65.80;;;;;;5089631;28;20044;-63
2022/09/07 12:37:29;;;;;;;8.55;4.90;;;24.00;65.90;;;;;;5047291;28;20144;-63
2022/09/07 12:40:26;;;;;;;7.43;4.30;;;24.00;65.80;;;;;;5089070;28;20052;-63
2022/09/07 12:43:13;;;;;;;6.82;4.28;;;24.10;65.80;;;;;;5090581;28;20484;-63
2022/09/07 12:45:39;;;;;;;5.30;3.80;;;24.10;65.20;;;;;;5090820;28;20050;-64
2022/09/07 12:48:34;;;;;;;6.13;3.60;;;24.10;65.40;;;;;;5089326;28;20126;-64
2022/09/07 12:51:15;;;;;;;4.00;2.67;;;24.10;65.00;;;;;;5069331;28;20549;-64
2022/09/07 12:53:46;;;;;;;7.15;4.80;;;24.10;65.10;;;;;;5091417;28;20400;-64
2022/09/07 12:56:34;;;;;;;6.07;3.15;;;24.10;64.80;;;;;;5095143;28;20044;-64
2022/09/07 12:59:03;;;;;;;6.60;3.72;;;24.10;64.50;;;;;;5095045;28;20036;-63
2022/09/07 13:01:35;;;;;;;5.38;2.95;;;24.10;64.50;;;;;;5076061;28;20084;-65
2022/09/07 13:04:19;;;;;;;6.25;2.75;;;24.20;64.60;;;;;;5093769;28;20059;-67
2022/09/07 13:07:08;;;;;;;4.40;2.45;;;24.20;64.80;;;;;;5093935;28;20543;-64
2022/09/07 13:09:41;;;;;;;4.55;2.72;;;24.20;65.20;;;;;;5091847;28;20087;-64
2022/09/07 13:12:29;;;;;;;4.22;2.22;;;24.20;65.50;;;;;;5093523;28;20048;-65
2022/09/07 13:14:55;;;;;;;5.97;2.17;;;24.20;65.70;;;;;;5094059;28;20044;-64